sensor_id;sensor_type;location;lat;lon;timestamp;P1;durP1;ratioP1;P2;durP2;ratioP2
10333;SDS011;5212;47.892;16.406;2023-03-31T05:03:59;5.47;;;3.97;;
10333;SDS011;5212;47.892;16.406;2023-03-31T05:27:03;4.17;;;3.40;;
10333;SDS011;5212;47.892;16.406;2023-03-31T05:32:06;5.97;;;4.40;;
10333;SDS011;5212;47.892;16.406;2023-03-31T05:47:31;75.67;;;44.67;;
10333;SDS011;5212;47.892;16.406;2023-03-31T05:49:57;41.00;;;26.30;;
10333;SDS011;5212;47.892;16.406;2023-03-31T05:52:23;44.13;;;27.33;;
10333;SDS011;5212;47.892;16.406;2023-03-31T06:10:15;4.63;;;3.70;;
10333;SDS011;5212;47.892;16.406;2023-03-31T06:12:42;6.10;;;5.10;;
10333;SDS011;5212;47.892;16.406;2023-03-31T06:20:18;4.43;;;3.43;;
10333;SDS011;5212;47.892;16.406;2023-03-31T06:22:44;4.40;;;3.43;;
10333;SDS011;5212;47.892;16.406;2023-03-31T06:25:11;3.40;;;2.80;;
10333;SDS011;5212;47.892;16.406;2023-03-31T06:27:39;4.47;;;3.07;;
10333;SDS011;5212;47.892;16.406;2023-03-31T06:30:06;4.50;;;3.10;;
10333;SDS011;5212;47.892;16.406;2023-03-31T06:32:33;4.87;;;3.00;;
10333;SDS011;5212;47.892;16.406;2023-03-31T06:35:00;4.23;;;3.33;;
10333;SDS011;5212;47.892;16.406;2023-03-31T06:42:37;4.30;;;3.43;;
10333;SDS011;5212;47.892;16.406;2023-03-31T06:47:40;6.50;;;3.60;;
10333;SDS011;5212;47.892;16.406;2023-03-31T06:50:07;6.00;;;3.60;;
10333;SDS011;5212;47.892;16.406;2023-03-31T06:55:09;4.77;;;3.87;;
10333;SDS011;5212;47.892;16.406;2023-03-31T07:05:24;4.10;;;3.20;;
10333;SDS011;5212;47.892;16.406;2023-03-31T07:26:00;3.90;;;3.50;;
10333;SDS011;5212;47.892;16.406;2023-03-31T07:28:26;3.87;;;3.43;;
10333;SDS011;5212;47.892;16.406;2023-03-31T07:30:53;4.20;;;3.43;;
10333;SDS011;5212;47.892;16.406;2023-03-31T07:33:20;4.57;;;3.40;;
10333;SDS011;5212;47.892;16.406;2023-03-31T07:48:46;4.20;;;3.27;;
10333;SDS011;5212;47.892;16.406;2023-03-31T07:51:13;4.17;;;3.30;;
10333;SDS011;5212;47.892;16.406;2023-03-31T07:53:40;6.03;;;3.70;;
10333;SDS011;5212;47.892;16.406;2023-03-31T07:58:42;4.93;;;3.30;;
10333;SDS011;5212;47.892;16.406;2023-03-31T08:03:36;4.60;;;3.60;;
10333;SDS011;5212;47.892;16.406;2023-03-31T08:11:08;4.70;;;4.03;;
10333;SDS011;5212;47.892;16.406;2023-03-31T08:18:45;4.30;;;3.90;;
10333;SDS011;5212;47.892;16.406;2023-03-31T08:31:26;3.50;;;3.20;;
10333;SDS011;5212;47.892;16.406;2023-03-31T08:33:53;4.67;;;3.27;;
10333;SDS011;5212;47.892;16.406;2023-03-31T08:36:20;4.13;;;3.67;;
10333;SDS011;5212;47.892;16.406;2023-03-31T08:38:46;4.60;;;3.53;;
10333;SDS011;5212;47.892;16.406;2023-03-31T08:41:18;3.60;;;3.20;;
10333;SDS011;5212;47.892;16.406;2023-03-31T08:52:06;3.97;;;3.10;;
10333;SDS011;5212;47.892;16.406;2023-03-31T09:10:05;3.80;;;3.50;;
10333;SDS011;5212;47.892;16.406;2023-03-31T09:15:18;3.90;;;3.40;;
10333;SDS011;5212;47.892;16.406;2023-03-31T09:22:55;4.20;;;3.80;;
10333;SDS011;5212;47.892;16.406;2023-03-31T09:28:01;4.23;;;3.63;;
10333;SDS011;5212;47.892;16.406;2023-03-31T09:30:29;4.63;;;3.77;;
10333;SDS011;5212;47.892;16.406;2023-03-31T09:56:07;3.90;;;3.43;;
10333;SDS011;5212;47.892;16.406;2023-03-31T10:03:48;4.57;;;3.70;;
10333;SDS011;5212;47.892;16.406;2023-03-31T10:06:15;4.50;;;3.80;;
10333;SDS011;5212;47.892;16.406;2023-03-31T10:08:43;3.40;;;3.10;;
10333;SDS011;5212;47.892;16.406;2023-03-31T10:11:14;3.87;;;3.43;;
10333;SDS011;5212;47.892;16.406;2023-03-31T10:16:20;4.43;;;3.40;;
10333;SDS011;5212;47.892;16.406;2023-03-31T10:18:48;5.03;;;3.50;;
10333;SDS011;5212;47.892;16.406;2023-03-31T10:21:17;3.90;;;3.27;;
10333;SDS011;5212;47.892;16.406;2023-03-31T10:23:47;4.33;;;3.50;;
10333;SDS011;5212;47.892;16.406;2023-03-31T10:26:16;5.20;;;3.53;;
10333;SDS011;5212;47.892;16.406;2023-03-31T10:28:44;4.63;;;3.80;;
10333;SDS011;5212;47.892;16.406;2023-03-31T10:31:13;5.33;;;3.50;;
10333;SDS011;5212;47.892;16.406;2023-03-31T10:33:41;6.77;;;3.50;;
10333;SDS011;5212;47.892;16.406;2023-03-31T10:38:45;4.00;;;3.13;;
10333;SDS011;5212;47.892;16.406;2023-03-31T10:41:11;4.10;;;3.40;;
10333;SDS011;5212;47.892;16.406;2023-03-31T10:43:46;4.60;;;3.23;;
10333;SDS011;5212;47.892;16.406;2023-03-31T10:46:14;4.17;;;3.40;;
10333;SDS011;5212;47.892;16.406;2023-03-31T10:48:40;3.50;;;3.10;;
10333;SDS011;5212;47.892;16.406;2023-03-31T10:51:10;4.77;;;3.50;;
10333;SDS011;5212;47.892;16.406;2023-03-31T10:53:41;3.53;;;3.20;;
10333;SDS011;5212;47.892;16.406;2023-03-31T10:56:12;3.80;;;3.13;;
10333;SDS011;5212;47.892;16.406;2023-03-31T10:58:47;3.00;;;2.70;;
10333;SDS011;5212;47.892;16.406;2023-03-31T11:01:24;3.70;;;3.13;;
10333;SDS011;5212;47.892;16.406;2023-03-31T11:04:01;2.70;;;2.50;;
10333;SDS011;5212;47.892;16.406;2023-03-31T11:06:45;2.93;;;2.63;;
10333;SDS011;5212;47.892;16.406;2023-03-31T11:09:28;3.43;;;2.83;;
10333;SDS011;5212;47.892;16.406;2023-03-31T11:14:39;4.87;;;2.77;;
10333;SDS011;5212;47.892;16.406;2023-03-31T11:17:13;2.83;;;2.53;;
10333;SDS011;5212;47.892;16.406;2023-03-31T11:19:48;3.43;;;2.73;;
10333;SDS011;5212;47.892;16.406;2023-03-31T11:22:22;2.70;;;2.40;;
10333;SDS011;5212;47.892;16.406;2023-03-31T11:25:07;2.87;;;2.67;;
10333;SDS011;5212;47.892;16.406;2023-03-31T11:30:09;3.20;;;2.30;;
10333;SDS011;5212;47.892;16.406;2023-03-31T11:32:47;2.67;;;2.47;;
10333;SDS011;5212;47.892;16.406;2023-03-31T11:37:58;3.67;;;2.60;;
10333;SDS011;5212;47.892;16.406;2023-03-31T11:40:41;2.93;;;2.63;;
10333;SDS011;5212;47.892;16.406;2023-03-31T11:43:15;3.03;;;2.73;;
10333;SDS011;5212;47.892;16.406;2023-03-31T11:45:51;4.03;;;2.80;;
10333;SDS011;5212;47.892;16.406;2023-03-31T11:48:26;2.60;;;2.40;;
10333;SDS011;5212;47.892;16.406;2023-03-31T11:51:28;3.07;;;2.37;;
10333;SDS011;5212;47.892;16.406;2023-03-31T11:54:57;5.27;;;2.90;;
10333;SDS011;5212;47.892;16.406;2023-03-31T11:57:40;2.60;;;2.40;;
10333;SDS011;5212;47.892;16.406;2023-03-31T12:00:09;2.87;;;2.60;;
10333;SDS011;5212;47.892;16.406;2023-03-31T12:02:44;3.23;;;2.67;;
10333;SDS011;5212;47.892;16.406;2023-03-31T12:05:14;3.10;;;2.50;;
10333;SDS011;5212;47.892;16.406;2023-03-31T12:07:42;3.60;;;2.60;;
10333;SDS011;5212;47.892;16.406;2023-03-31T12:10:14;2.97;;;2.40;;
10333;SDS011;5212;47.892;16.406;2023-03-31T12:12:44;2.40;;;2.20;;
10333;SDS011;5212;47.892;16.406;2023-03-31T12:15:16;2.83;;;2.40;;
10333;SDS011;5212;47.892;16.406;2023-03-31T12:17:46;2.50;;;2.30;;
10333;SDS011;5212;47.892;16.406;2023-03-31T12:20:18;3.10;;;2.43;;
10333;SDS011;5212;47.892;16.406;2023-03-31T12:22:48;2.40;;;2.20;;
10333;SDS011;5212;47.892;16.406;2023-03-31T12:25:15;3.20;;;2.23;;
10333;SDS011;5212;47.892;16.406;2023-03-31T12:27:47;3.40;;;2.70;;
10333;SDS011;5212;47.892;16.406;2023-03-31T12:30:16;4.40;;;2.93;;
10333;SDS011;5212;47.892;16.406;2023-03-31T12:32:47;3.93;;;3.20;;
10333;SDS011;5212;47.892;16.406;2023-03-31T12:35:16;3.97;;;3.17;;
10333;SDS011;5212;47.892;16.406;2023-03-31T12:40:33;4.10;;;3.40;;
10333;SDS011;5212;47.892;16.406;2023-03-31T12:45:49;4.70;;;3.97;;
10333;SDS011;5212;47.892;16.406;2023-03-31T12:48:32;3.90;;;3.27;;
10333;SDS011;5212;47.892;16.406;2023-03-31T12:51:11;4.60;;;4.13;;
10333;SDS011;5212;47.892;16.406;2023-03-31T12:54:07;3.93;;;3.33;;
10333;SDS011;5212;47.892;16.406;2023-03-31T12:57:04;4.73;;;3.47;;
10333;SDS011;5212;47.892;16.406;2023-03-31T12:59:38;3.60;;;3.30;;
10333;SDS011;5212;47.892;16.406;2023-03-31T13:02:24;4.13;;;3.33;;
10333;SDS011;5212;47.892;16.406;2023-03-31T13:04:52;3.30;;;3.00;;
10333;SDS011;5212;47.892;16.406;2023-03-31T13:07:38;4.27;;;2.80;;
10333;SDS011;5212;47.892;16.406;2023-03-31T13:10:23;3.43;;;3.13;;
10333;SDS011;5212;47.892;16.406;2023-03-31T13:12:58;4.20;;;3.20;;
10333;SDS011;5212;47.892;16.406;2023-03-31T13:15:27;5.03;;;3.63;;
10333;SDS011;5212;47.892;16.406;2023-03-31T13:17:55;3.73;;;3.20;;
10333;SDS011;5212;47.892;16.406;2023-03-31T13:20:25;4.67;;;3.40;;
10333;SDS011;5212;47.892;16.406;2023-03-31T13:23:00;4.23;;;2.80;;
10333;SDS011;5212;47.892;16.406;2023-03-31T13:25:34;3.73;;;3.00;;
10333;SDS011;5212;47.892;16.406;2023-03-31T13:28:13;4.90;;;3.20;;
10333;SDS011;5212;47.892;16.406;2023-03-31T13:30:55;5.23;;;3.43;;
10333;SDS011;5212;47.892;16.406;2023-03-31T13:33:23;3.93;;;3.53;;
10333;SDS011;5212;47.892;16.406;2023-03-31T13:35:55;2.70;;;2.50;;
10333;SDS011;5212;47.892;16.406;2023-03-31T13:38:49;3.20;;;2.80;;
10333;SDS011;5212;47.892;16.406;2023-03-31T13:41:27;3.10;;;2.47;;
10333;SDS011;5212;47.892;16.406;2023-03-31T13:47:02;3.00;;;2.70;;
10333;SDS011;5212;47.892;16.406;2023-03-31T13:49:49;2.63;;;2.40;;
10333;SDS011;5212;47.892;16.406;2023-03-31T13:52:22;3.00;;;2.50;;
10333;SDS011;5212;47.892;16.406;2023-03-31T13:58:06;3.20;;;2.80;;
10333;SDS011;5212;47.892;16.406;2023-03-31T14:01:01;3.63;;;2.80;;
10333;SDS011;5212;47.892;16.406;2023-03-31T14:03:47;3.33;;;3.00;;
10333;SDS011;5212;47.892;16.406;2023-03-31T14:06:19;4.33;;;3.00;;
10333;SDS011;5212;47.892;16.406;2023-03-31T14:08:51;3.97;;;3.20;;
10333;SDS011;5212;47.892;16.406;2023-03-31T14:11:22;3.03;;;2.63;;
10333;SDS011;5212;47.892;16.406;2023-03-31T14:13:59;4.23;;;3.33;;
10333;SDS011;5212;47.892;16.406;2023-03-31T14:16:31;5.00;;;3.10;;
10333;SDS011;5212;47.892;16.406;2023-03-31T14:19:05;3.80;;;3.30;;
10333;SDS011;5212;47.892;16.406;2023-03-31T14:21:39;5.63;;;4.20;;
10333;SDS011;5212;47.892;16.406;2023-03-31T14:24:12;4.60;;;3.83;;
10333;SDS011;5212;47.892;16.406;2023-03-31T14:29:14;4.83;;;3.47;;
10333;SDS011;5212;47.892;16.406;2023-03-31T14:31:46;3.50;;;3.20;;
10333;SDS011;5212;47.892;16.406;2023-03-31T14:34:24;4.03;;;3.17;;
10333;SDS011;5212;47.892;16.406;2023-03-31T14:36:59;5.70;;;3.27;;
10333;SDS011;5212;47.892;16.406;2023-03-31T14:39:29;3.03;;;2.70;;
10333;SDS011;5212;47.892;16.406;2023-03-31T14:41:58;2.93;;;2.63;;
10333;SDS011;5212;47.892;16.406;2023-03-31T14:44:28;3.00;;;2.70;;
10333;SDS011;5212;47.892;16.406;2023-03-31T14:46:55;2.60;;;2.40;;
10333;SDS011;5212;47.892;16.406;2023-03-31T14:49:24;2.70;;;2.50;;
10333;SDS011;5212;47.892;16.406;2023-03-31T14:51:52;2.57;;;2.30;;
10333;SDS011;5212;47.892;16.406;2023-03-31T14:54:20;2.53;;;1.80;;
10333;SDS011;5212;47.892;16.406;2023-03-31T14:56:52;2.43;;;2.00;;
10333;SDS011;5212;47.892;16.406;2023-03-31T14:59:21;3.50;;;2.67;;
10333;SDS011;5212;47.892;16.406;2023-03-31T15:01:50;4.00;;;3.60;;
10333;SDS011;5212;47.892;16.406;2023-03-31T15:04:18;13.70;;;12.40;;
10333;SDS011;5212;47.892;16.406;2023-03-31T15:06:47;12.40;;;11.23;;
10333;SDS011;5212;47.892;16.406;2023-03-31T15:09:16;8.97;;;8.07;;
10333;SDS011;5212;47.892;16.406;2023-03-31T15:11:45;7.60;;;6.90;;
10333;SDS011;5212;47.892;16.406;2023-03-31T15:14:12;7.00;;;5.07;;
10333;SDS011;5212;47.892;16.406;2023-03-31T15:16:39;4.60;;;2.27;;
10333;SDS011;5212;47.892;16.406;2023-03-31T15:19:10;2.23;;;2.00;;
10333;SDS011;5212;47.892;16.406;2023-03-31T15:21:39;4.03;;;1.90;;
10333;SDS011;5212;47.892;16.406;2023-03-31T15:24:05;4.40;;;1.80;;
10333;SDS011;5212;47.892;16.406;2023-03-31T15:26:33;2.73;;;1.70;;
10333;SDS011;5212;47.892;16.406;2023-03-31T15:29:03;2.60;;;2.10;;
10333;SDS011;5212;47.892;16.406;2023-03-31T15:31:32;2.17;;;1.53;;
10333;SDS011;5212;47.892;16.406;2023-03-31T15:33:59;2.80;;;1.60;;
10333;SDS011;5212;47.892;16.406;2023-03-31T15:36:25;3.47;;;1.80;;
10333;SDS011;5212;47.892;16.406;2023-03-31T15:38:54;2.50;;;1.60;;
10333;SDS011;5212;47.892;16.406;2023-03-31T15:41:22;2.00;;;1.80;;
10333;SDS011;5212;47.892;16.406;2023-03-31T15:43:49;1.97;;;1.60;;
10333;SDS011;5212;47.892;16.406;2023-03-31T15:46:47;2.27;;;1.80;;
10333;SDS011;5212;47.892;16.406;2023-03-31T15:49:17;2.80;;;2.00;;
10333;SDS011;5212;47.892;16.406;2023-03-31T15:51:44;2.70;;;1.60;;
10333;SDS011;5212;47.892;16.406;2023-03-31T15:54:25;1.67;;;1.57;;
10333;SDS011;5212;47.892;16.406;2023-03-31T15:56:55;1.97;;;1.60;;
10333;SDS011;5212;47.892;16.406;2023-03-31T15:59:22;1.83;;;1.67;;
10333;SDS011;5212;47.892;16.406;2023-03-31T16:01:50;1.93;;;1.60;;
10333;SDS011;5212;47.892;16.406;2023-03-31T16:04:17;1.77;;;1.50;;
10333;SDS011;5212;47.892;16.406;2023-03-31T16:06:44;4.40;;;2.00;;
10333;SDS011;5212;47.892;16.406;2023-03-31T16:09:12;2.00;;;1.50;;
10333;SDS011;5212;47.892;16.406;2023-03-31T16:11:42;2.77;;;1.80;;
10333;SDS011;5212;47.892;16.406;2023-03-31T16:14:12;3.73;;;2.40;;
10333;SDS011;5212;47.892;16.406;2023-03-31T16:16:44;2.53;;;2.07;;
10333;SDS011;5212;47.892;16.406;2023-03-31T16:19:13;5.37;;;2.33;;
10333;SDS011;5212;47.892;16.406;2023-03-31T16:21:40;3.77;;;1.90;;
10333;SDS011;5212;47.892;16.406;2023-03-31T16:24:11;1.80;;;1.60;;
10333;SDS011;5212;47.892;16.406;2023-03-31T16:26:38;2.27;;;1.67;;
10333;SDS011;5212;47.892;16.406;2023-03-31T16:29:05;2.03;;;1.70;;
10333;SDS011;5212;47.892;16.406;2023-03-31T16:31:34;3.00;;;1.60;;
10333;SDS011;5212;47.892;16.406;2023-03-31T16:34:02;1.97;;;1.60;;
10333;SDS011;5212;47.892;16.406;2023-03-31T16:36:30;2.17;;;1.70;;
10333;SDS011;5212;47.892;16.406;2023-03-31T16:38:56;1.80;;;1.70;;
10333;SDS011;5212;47.892;16.406;2023-03-31T16:41:23;3.10;;;2.03;;
10333;SDS011;5212;47.892;16.406;2023-03-31T16:43:51;3.00;;;1.87;;
10333;SDS011;5212;47.892;16.406;2023-03-31T16:46:18;2.63;;;2.00;;
10333;SDS011;5212;47.892;16.406;2023-03-31T16:48:45;2.63;;;2.00;;
10333;SDS011;5212;47.892;16.406;2023-03-31T16:51:12;1.97;;;1.73;;
10333;SDS011;5212;47.892;16.406;2023-03-31T16:53:39;1.80;;;1.47;;
10333;SDS011;5212;47.892;16.406;2023-03-31T16:56:06;1.90;;;1.57;;
10333;SDS011;5212;47.892;16.406;2023-03-31T16:58:33;2.20;;;1.50;;
10333;SDS011;5212;47.892;16.406;2023-03-31T17:01:00;1.63;;;1.43;;
10333;SDS011;5212;47.892;16.406;2023-03-31T17:03:27;2.13;;;1.53;;
10333;SDS011;5212;47.892;16.406;2023-03-31T17:05:54;2.83;;;2.13;;
10333;SDS011;5212;47.892;16.406;2023-03-31T17:08:22;3.37;;;2.20;;
10333;SDS011;5212;47.892;16.406;2023-03-31T17:10:51;6.83;;;5.83;;
10333;SDS011;5212;47.892;16.406;2023-03-31T17:13:19;4.17;;;3.20;;
10333;SDS011;5212;47.892;16.406;2023-03-31T17:15:46;3.13;;;2.07;;
10333;SDS011;5212;47.892;16.406;2023-03-31T17:18:12;2.47;;;1.70;;
10333;SDS011;5212;47.892;16.406;2023-03-31T17:20:39;1.97;;;1.60;;
10333;SDS011;5212;47.892;16.406;2023-03-31T17:23:05;2.17;;;1.50;;
10333;SDS011;5212;47.892;16.406;2023-03-31T17:25:32;2.70;;;1.77;;
10333;SDS011;5212;47.892;16.406;2023-03-31T17:28:02;2.37;;;1.70;;
10333;SDS011;5212;47.892;16.406;2023-03-31T17:30:29;2.47;;;1.70;;
10333;SDS011;5212;47.892;16.406;2023-03-31T17:32:58;3.57;;;2.50;;
10333;SDS011;5212;47.892;16.406;2023-03-31T17:35:24;5.43;;;3.53;;
10333;SDS011;5212;47.892;16.406;2023-03-31T17:37:51;2.93;;;2.20;;
10333;SDS011;5212;47.892;16.406;2023-03-31T17:40:18;2.20;;;1.70;;
10333;SDS011;5212;47.892;16.406;2023-03-31T17:42:45;2.77;;;1.80;;
10333;SDS011;5212;47.892;16.406;2023-03-31T17:45:12;2.67;;;2.00;;
10333;SDS011;5212;47.892;16.406;2023-03-31T17:47:39;3.17;;;2.10;;
10333;SDS011;5212;47.892;16.406;2023-03-31T17:50:06;2.60;;;1.80;;
10333;SDS011;5212;47.892;16.406;2023-03-31T17:52:33;2.33;;;1.67;;
10333;SDS011;5212;47.892;16.406;2023-03-31T17:55:00;1.57;;;1.47;;
10333;SDS011;5212;47.892;16.406;2023-03-31T17:57:28;2.57;;;1.70;;
10333;SDS011;5212;47.892;16.406;2023-03-31T17:59:54;2.03;;;1.50;;
10333;SDS011;5212;47.892;16.406;2023-03-31T18:02:21;2.73;;;1.90;;
10333;SDS011;5212;47.892;16.406;2023-03-31T18:04:48;2.00;;;1.50;;
10333;SDS011;5212;47.892;16.406;2023-03-31T18:07:14;3.40;;;1.87;;
10333;SDS011;5212;47.892;16.406;2023-03-31T18:09:42;2.13;;;1.87;;
10333;SDS011;5212;47.892;16.406;2023-03-31T18:12:09;2.50;;;1.80;;
10333;SDS011;5212;47.892;16.406;2023-03-31T18:14:35;2.43;;;1.80;;
10333;SDS011;5212;47.892;16.406;2023-03-31T18:17:02;2.37;;;1.70;;
10333;SDS011;5212;47.892;16.406;2023-03-31T18:19:29;2.30;;;1.83;;
10333;SDS011;5212;47.892;16.406;2023-03-31T18:21:56;2.60;;;1.90;;
10333;SDS011;5212;47.892;16.406;2023-03-31T18:24:22;2.97;;;1.90;;
10333;SDS011;5212;47.892;16.406;2023-03-31T18:26:49;2.07;;;1.60;;
10333;SDS011;5212;47.892;16.406;2023-03-31T18:29:16;2.00;;;1.30;;
10333;SDS011;5212;47.892;16.406;2023-03-31T18:31:42;2.60;;;1.53;;
10333;SDS011;5212;47.892;16.406;2023-03-31T18:39:21;1.30;;;1.10;;
10333;SDS011;5212;47.892;16.406;2023-03-31T18:44:23;1.40;;;1.20;;
10333;SDS011;5212;47.892;16.406;2023-03-31T18:46:49;2.60;;;1.40;;
10333;SDS011;5212;47.892;16.406;2023-03-31T18:49:15;1.43;;;1.10;;
10333;SDS011;5212;47.892;16.406;2023-03-31T18:51:51;2.43;;;1.17;;
10333;SDS011;5212;47.892;16.406;2023-03-31T18:54:18;1.90;;;1.10;;
10333;SDS011;5212;47.892;16.406;2023-03-31T18:56:46;2.33;;;1.50;;
10333;SDS011;5212;47.892;16.406;2023-03-31T18:59:12;2.20;;;1.33;;
10333;SDS011;5212;47.892;16.406;2023-03-31T19:01:38;1.67;;;1.37;;
10333;SDS011;5212;47.892;16.406;2023-03-31T19:04:05;1.90;;;1.40;;
10333;SDS011;5212;47.892;16.406;2023-03-31T19:06:31;1.97;;;1.30;;
10333;SDS011;5212;47.892;16.406;2023-03-31T19:08:58;2.57;;;1.33;;
10333;SDS011;5212;47.892;16.406;2023-03-31T19:11:25;3.30;;;1.30;;
10333;SDS011;5212;47.892;16.406;2023-03-31T19:13:52;1.97;;;1.20;;
10333;SDS011;5212;47.892;16.406;2023-03-31T19:16:19;1.70;;;1.40;;
10333;SDS011;5212;47.892;16.406;2023-03-31T19:18:46;2.30;;;1.40;;
10333;SDS011;5212;47.892;16.406;2023-03-31T19:21:13;2.30;;;1.57;;
10333;SDS011;5212;47.892;16.406;2023-03-31T19:23:40;1.57;;;1.33;;
10333;SDS011;5212;47.892;16.406;2023-03-31T19:26:06;2.70;;;1.80;;
10333;SDS011;5212;47.892;16.406;2023-03-31T19:28:33;2.07;;;1.50;;
10333;SDS011;5212;47.892;16.406;2023-03-31T19:31:01;2.10;;;1.70;;
10333;SDS011;5212;47.892;16.406;2023-03-31T19:33:28;2.33;;;1.60;;
10333;SDS011;5212;47.892;16.406;2023-03-31T19:35:54;4.40;;;1.90;;
10333;SDS011;5212;47.892;16.406;2023-03-31T19:51:04;2.83;;;1.73;;
10333;SDS011;5212;47.892;16.406;2023-03-31T19:53:32;3.43;;;2.10;;
10333;SDS011;5212;47.892;16.406;2023-03-31T19:55:59;3.33;;;1.70;;
10333;SDS011;5212;47.892;16.406;2023-03-31T19:58:27;2.20;;;1.60;;
10333;SDS011;5212;47.892;16.406;2023-03-31T20:00:55;2.00;;;1.70;;
10333;SDS011;5212;47.892;16.406;2023-03-31T20:03:23;2.93;;;1.63;;
10333;SDS011;5212;47.892;16.406;2023-03-31T20:05:50;3.53;;;1.77;;
10333;SDS011;5212;47.892;16.406;2023-03-31T20:08:19;2.10;;;1.53;;
10333;SDS011;5212;47.892;16.406;2023-03-31T20:10:45;3.10;;;1.90;;
10333;SDS011;5212;47.892;16.406;2023-03-31T20:13:12;1.83;;;1.50;;
10333;SDS011;5212;47.892;16.406;2023-03-31T20:15:38;2.63;;;1.40;;
10333;SDS011;5212;47.892;16.406;2023-03-31T20:18:05;5.43;;;1.50;;
10333;SDS011;5212;47.892;16.406;2023-03-31T20:20:31;2.23;;;1.33;;
10333;SDS011;5212;47.892;16.406;2023-03-31T20:22:58;2.40;;;1.30;;
10333;SDS011;5212;47.892;16.406;2023-03-31T20:25:25;2.13;;;1.20;;
10333;SDS011;5212;47.892;16.406;2023-03-31T20:27:52;1.80;;;1.30;;
10333;SDS011;5212;47.892;16.406;2023-03-31T20:30:18;3.53;;;1.30;;
10333;SDS011;5212;47.892;16.406;2023-03-31T20:32:45;1.87;;;1.30;;
10333;SDS011;5212;47.892;16.406;2023-03-31T20:35:11;2.20;;;1.30;;
10333;SDS011;5212;47.892;16.406;2023-03-31T20:37:37;1.87;;;1.10;;
10333;SDS011;5212;47.892;16.406;2023-03-31T20:40:04;1.80;;;1.27;;
10333;SDS011;5212;47.892;16.406;2023-03-31T20:42:32;1.80;;;1.07;;
10333;SDS011;5212;47.892;16.406;2023-03-31T20:44:59;3.57;;;1.30;;
10333;SDS011;5212;47.892;16.406;2023-03-31T20:47:27;2.73;;;1.27;;
10333;SDS011;5212;47.892;16.406;2023-03-31T20:49:53;1.20;;;1.00;;
10333;SDS011;5212;47.892;16.406;2023-03-31T20:52:20;1.73;;;1.30;;
10333;SDS011;5212;47.892;16.406;2023-03-31T20:54:47;4.80;;;1.80;;
10333;SDS011;5212;47.892;16.406;2023-03-31T20:57:13;1.83;;;1.60;;
10333;SDS011;5212;47.892;16.406;2023-03-31T20:59:41;2.87;;;1.80;;
10333;SDS011;5212;47.892;16.406;2023-03-31T21:02:08;2.60;;;1.93;;
10333;SDS011;5212;47.892;16.406;2023-03-31T21:04:35;4.23;;;1.90;;
10333;SDS011;5212;47.892;16.406;2023-03-31T21:07:02;2.23;;;1.70;;
10333;SDS011;5212;47.892;16.406;2023-03-31T21:09:28;2.00;;;1.50;;
10333;SDS011;5212;47.892;16.406;2023-03-31T21:11:55;2.53;;;1.60;;
10333;SDS011;5212;47.892;16.406;2023-03-31T21:14:22;2.03;;;1.70;;
10333;SDS011;5212;47.892;16.406;2023-03-31T21:16:50;2.17;;;1.50;;
10333;SDS011;5212;47.892;16.406;2023-03-31T21:19:16;2.03;;;1.50;;
10333;SDS011;5212;47.892;16.406;2023-03-31T21:21:43;2.43;;;1.50;;
10333;SDS011;5212;47.892;16.406;2023-03-31T21:24:10;1.90;;;1.60;;
10333;SDS011;5212;47.892;16.406;2023-03-31T21:26:37;2.83;;;1.80;;
10333;SDS011;5212;47.892;16.406;2023-03-31T21:29:03;1.50;;;1.30;;
10333;SDS011;5212;47.892;16.406;2023-03-31T21:31:30;2.77;;;1.70;;
10333;SDS011;5212;47.892;16.406;2023-03-31T21:33:58;2.40;;;1.97;;
10333;SDS011;5212;47.892;16.406;2023-03-31T21:36:26;2.40;;;1.70;;
10333;SDS011;5212;47.892;16.406;2023-03-31T21:38:53;2.27;;;1.70;;
10333;SDS011;5212;47.892;16.406;2023-03-31T21:41:21;2.83;;;1.73;;
10333;SDS011;5212;47.892;16.406;2023-03-31T21:43:48;3.70;;;2.00;;
10333;SDS011;5212;47.892;16.406;2023-03-31T21:46:15;3.73;;;2.03;;
10333;SDS011;5212;47.892;16.406;2023-03-31T21:48:41;12.03;;;8.97;;
10333;SDS011;5212;47.892;16.406;2023-03-31T21:51:09;11.10;;;8.40;;
10333;SDS011;5212;47.892;16.406;2023-03-31T21:53:35;12.43;;;9.60;;
10333;SDS011;5212;47.892;16.406;2023-03-31T21:56:02;17.83;;;12.20;;
10333;SDS011;5212;47.892;16.406;2023-03-31T21:58:29;16.33;;;11.57;;
10333;SDS011;5212;47.892;16.406;2023-03-31T22:00:55;18.40;;;12.90;;
10333;SDS011;5212;47.892;16.406;2023-03-31T22:03:22;13.77;;;9.70;;
10333;SDS011;5212;47.892;16.406;2023-03-31T22:05:52;47.57;;;27.90;;
10333;SDS011;5212;47.892;16.406;2023-03-31T22:08:19;25.57;;;15.57;;
10333;SDS011;5212;47.892;16.406;2023-03-31T22:10:46;18.27;;;12.10;;
10333;SDS011;5212;47.892;16.406;2023-03-31T22:13:13;14.27;;;9.47;;
10333;SDS011;5212;47.892;16.406;2023-03-31T22:15:41;10.27;;;6.93;;
10333;SDS011;5212;47.892;16.406;2023-03-31T22:18:08;10.13;;;6.83;;
10333;SDS011;5212;47.892;16.406;2023-03-31T22:20:35;7.90;;;4.83;;
10333;SDS011;5212;47.892;16.406;2023-03-31T22:23:02;6.93;;;4.47;;
10333;SDS011;5212;47.892;16.406;2023-03-31T22:25:29;7.63;;;4.90;;
10333;SDS011;5212;47.892;16.406;2023-03-31T22:27:55;9.30;;;5.47;;
10333;SDS011;5212;47.892;16.406;2023-03-31T22:30:22;10.07;;;6.10;;
10333;SDS011;5212;47.892;16.406;2023-03-31T22:32:48;8.57;;;5.50;;
10333;SDS011;5212;47.892;16.406;2023-03-31T22:35:15;5.13;;;3.50;;
10333;SDS011;5212;47.892;16.406;2023-03-31T22:37:41;7.60;;;3.13;;
10333;SDS011;5212;47.892;16.406;2023-03-31T22:40:08;3.10;;;2.50;;
10333;SDS011;5212;47.892;16.406;2023-03-31T22:42:36;3.83;;;1.90;;
10333;SDS011;5212;47.892;16.406;2023-03-31T22:45:02;2.43;;;1.80;;
10333;SDS011;5212;47.892;16.406;2023-03-31T22:47:30;3.17;;;1.80;;
10333;SDS011;5212;47.892;16.406;2023-03-31T22:49:57;3.07;;;1.50;;
10333;SDS011;5212;47.892;16.406;2023-03-31T22:52:23;2.43;;;1.10;;
10333;SDS011;5212;47.892;16.406;2023-03-31T22:54:50;1.83;;;1.07;;
10333;SDS011;5212;47.892;16.406;2023-03-31T22:57:16;1.60;;;1.30;;
10333;SDS011;5212;47.892;16.406;2023-03-31T22:59:44;2.20;;;1.07;;
10333;SDS011;5212;47.892;16.406;2023-03-31T23:02:10;2.70;;;0.97;;
10333;SDS011;5212;47.892;16.406;2023-03-31T23:04:37;1.70;;;1.10;;
10333;SDS011;5212;47.892;16.406;2023-03-31T23:07:03;1.70;;;0.93;;
10333;SDS011;5212;47.892;16.406;2023-03-31T23:09:29;1.63;;;1.00;;
10333;SDS011;5212;47.892;16.406;2023-03-31T23:11:56;1.90;;;1.03;;
10333;SDS011;5212;47.892;16.406;2023-03-31T23:14:23;2.30;;;1.00;;
10333;SDS011;5212;47.892;16.406;2023-03-31T23:16:51;1.40;;;0.80;;
10333;SDS011;5212;47.892;16.406;2023-03-31T23:19:17;1.37;;;0.70;;
10333;SDS011;5212;47.892;16.406;2023-03-31T23:21:44;2.63;;;1.10;;
10333;SDS011;5212;47.892;16.406;2023-03-31T23:24:10;1.67;;;0.80;;
10333;SDS011;5212;47.892;16.406;2023-03-31T23:26:36;1.17;;;0.80;;
10333;SDS011;5212;47.892;16.406;2023-03-31T23:29:03;2.53;;;0.93;;
10333;SDS011;5212;47.892;16.406;2023-03-31T23:31:31;1.20;;;0.80;;
10333;SDS011;5212;47.892;16.406;2023-03-31T23:33:59;1.17;;;0.80;;
10333;SDS011;5212;47.892;16.406;2023-03-31T23:36:26;0.73;;;0.67;;
10333;SDS011;5212;47.892;16.406;2023-03-31T23:38:53;1.60;;;0.87;;
10333;SDS011;5212;47.892;16.406;2023-03-31T23:41:21;1.27;;;0.80;;
10333;SDS011;5212;47.892;16.406;2023-03-31T23:43:48;1.50;;;0.80;;
10333;SDS011;5212;47.892;16.406;2023-03-31T23:46:15;0.63;;;0.60;;
10333;SDS011;5212;47.892;16.406;2023-03-31T23:48:42;2.73;;;0.70;;
10333;SDS011;5212;47.892;16.406;2023-03-31T23:51:09;2.27;;;1.00;;
10333;SDS011;5212;47.892;16.406;2023-03-31T23:53:36;1.57;;;0.90;;
10333;SDS011;5212;47.892;16.406;2023-03-31T23:56:04;2.20;;;0.90;;
10333;SDS011;5212;47.892;16.406;2023-03-31T23:58:32;1.27;;;0.73;;
